sensor_id;sensor_type;location;lat;lon;timestamp;P1;durP1;ratioP1;P2;durP2;ratioP2
20417;SDS011;10368;51.436;6.774;2024-02-15T00:02:23;11.30;;;8.80;;
20417;SDS011;10368;51.436;6.774;2024-02-15T00:04:50;12.57;;;7.97;;
20417;SDS011;10368;51.436;6.774;2024-02-15T00:07:17;16.10;;;8.70;;
20417;SDS011;10368;51.436;6.774;2024-02-15T00:09:45;16.37;;;8.33;;
20417;SDS011;10368;51.436;6.774;2024-02-15T00:12:12;14.67;;;9.33;;
20417;SDS011;10368;51.436;6.774;2024-02-15T00:14:39;13.20;;;8.97;;
20417;SDS011;10368;51.436;6.774;2024-02-15T00:17:06;9.90;;;8.47;;
20417;SDS011;10368;51.436;6.774;2024-02-15T00:19:33;12.63;;;7.73;;
20417;SDS011;10368;51.436;6.774;2024-02-15T00:22:00;16.97;;;8.90;;
20417;SDS011;10368;51.436;6.774;2024-02-15T00:24:27;10.83;;;8.30;;
20417;SDS011;10368;51.436;6.774;2024-02-15T00:26:54;19.27;;;10.63;;
20417;SDS011;10368;51.436;6.774;2024-02-15T00:29:21;11.40;;;10.10;;
20417;SDS011;10368;51.436;6.774;2024-02-15T00:31:48;12.90;;;9.20;;
20417;SDS011;10368;51.436;6.774;2024-02-15T00:34:16;20.57;;;9.77;;
20417;SDS011;10368;51.436;6.774;2024-02-15T00:36:44;10.53;;;8.17;;
20417;SDS011;10368;51.436;6.774;2024-02-15T00:39:11;11.60;;;8.30;;
20417;SDS011;10368;51.436;6.774;2024-02-15T00:41:40;14.77;;;10.17;;
20417;SDS011;10368;51.436;6.774;2024-02-15T00:44:08;15.27;;;9.13;;
20417;SDS011;10368;51.436;6.774;2024-02-15T00:46:37;14.33;;;9.60;;
20417;SDS011;10368;51.436;6.774;2024-02-15T00:49:04;11.90;;;8.87;;
20417;SDS011;10368;51.436;6.774;2024-02-15T00:51:33;12.23;;;9.83;;
20417;SDS011;10368;51.436;6.774;2024-02-15T00:54:04;12.27;;;9.00;;
20417;SDS011;10368;51.436;6.774;2024-02-15T00:56:31;12.97;;;9.40;;
20417;SDS011;10368;51.436;6.774;2024-02-15T00:58:59;12.90;;;8.40;;
20417;SDS011;10368;51.436;6.774;2024-02-15T01:01:29;14.03;;;8.53;;
20417;SDS011;10368;51.436;6.774;2024-02-15T01:03:56;11.10;;;8.87;;
20417;SDS011;10368;51.436;6.774;2024-02-15T01:06:24;11.97;;;8.97;;
20417;SDS011;10368;51.436;6.774;2024-02-15T01:08:51;10.70;;;8.67;;
20417;SDS011;10368;51.436;6.774;2024-02-15T01:11:18;12.97;;;8.33;;
20417;SDS011;10368;51.436;6.774;2024-02-15T01:13:45;17.33;;;9.17;;
20417;SDS011;10368;51.436;6.774;2024-02-15T01:16:12;13.90;;;9.87;;
20417;SDS011;10368;51.436;6.774;2024-02-15T01:18:39;15.97;;;9.87;;
20417;SDS011;10368;51.436;6.774;2024-02-15T01:21:06;15.57;;;10.83;;
20417;SDS011;10368;51.436;6.774;2024-02-15T01:23:33;12.80;;;10.60;;
20417;SDS011;10368;51.436;6.774;2024-02-15T01:26:03;17.03;;;11.37;;
20417;SDS011;10368;51.436;6.774;2024-02-15T01:28:31;21.40;;;11.60;;
20417;SDS011;10368;51.436;6.774;2024-02-15T01:30:59;22.53;;;12.33;;
20417;SDS011;10368;51.436;6.774;2024-02-15T01:33:26;20.10;;;12.97;;
20417;SDS011;10368;51.436;6.774;2024-02-15T01:35:54;16.53;;;11.20;;
20417;SDS011;10368;51.436;6.774;2024-02-15T01:38:21;23.33;;;10.80;;
20417;SDS011;10368;51.436;6.774;2024-02-15T01:40:48;15.43;;;11.20;;
20417;SDS011;10368;51.436;6.774;2024-02-15T01:43:15;12.57;;;10.07;;
20417;SDS011;10368;51.436;6.774;2024-02-15T01:45:42;10.30;;;9.30;;
20417;SDS011;10368;51.436;6.774;2024-02-15T01:48:09;12.77;;;9.37;;
20417;SDS011;10368;51.436;6.774;2024-02-15T01:50:37;18.13;;;9.17;;
20417;SDS011;10368;51.436;6.774;2024-02-15T01:53:06;12.20;;;10.00;;
20417;SDS011;10368;51.436;6.774;2024-02-15T01:55:35;19.40;;;8.93;;
20417;SDS011;10368;51.436;6.774;2024-02-15T01:58:02;10.90;;;9.23;;
20417;SDS011;10368;51.436;6.774;2024-02-15T02:00:30;16.93;;;8.93;;
20417;SDS011;10368;51.436;6.774;2024-02-15T02:02:57;16.00;;;8.40;;
20417;SDS011;10368;51.436;6.774;2024-02-15T02:05:29;14.83;;;8.50;;
20417;SDS011;10368;51.436;6.774;2024-02-15T02:07:58;12.40;;;8.30;;
20417;SDS011;10368;51.436;6.774;2024-02-15T02:10:28;15.80;;;8.13;;
20417;SDS011;10368;51.436;6.774;2024-02-15T02:12:59;10.93;;;7.30;;
20417;SDS011;10368;51.436;6.774;2024-02-15T02:15:31;12.63;;;7.60;;
20417;SDS011;10368;51.436;6.774;2024-02-15T02:18:00;14.00;;;7.27;;
20417;SDS011;10368;51.436;6.774;2024-02-15T02:20:27;11.40;;;6.73;;
20417;SDS011;10368;51.436;6.774;2024-02-15T02:22:54;12.23;;;6.57;;
20417;SDS011;10368;51.436;6.774;2024-02-15T02:25:34;11.90;;;8.17;;
20417;SDS011;10368;51.436;6.774;2024-02-15T02:28:01;10.30;;;7.33;;
20417;SDS011;10368;51.436;6.774;2024-02-15T02:30:28;13.53;;;6.97;;
20417;SDS011;10368;51.436;6.774;2024-02-15T02:32:56;11.40;;;7.20;;
20417;SDS011;10368;51.436;6.774;2024-02-15T02:35:25;10.87;;;6.47;;
20417;SDS011;10368;51.436;6.774;2024-02-15T02:37:53;10.47;;;6.33;;
20417;SDS011;10368;51.436;6.774;2024-02-15T02:40:20;13.83;;;6.10;;
20417;SDS011;10368;51.436;6.774;2024-02-15T02:42:48;8.90;;;5.97;;
20417;SDS011;10368;51.436;6.774;2024-02-15T02:45:17;9.23;;;6.37;;
20417;SDS011;10368;51.436;6.774;2024-02-15T02:47:49;7.70;;;6.23;;
20417;SDS011;10368;51.436;6.774;2024-02-15T02:50:20;10.00;;;6.50;;
20417;SDS011;10368;51.436;6.774;2024-02-15T02:52:49;18.30;;;7.47;;
20417;SDS011;10368;51.436;6.774;2024-02-15T02:55:16;8.93;;;5.63;;
20417;SDS011;10368;51.436;6.774;2024-02-15T02:57:43;9.87;;;5.27;;
20417;SDS011;10368;51.436;6.774;2024-02-15T03:00:11;8.67;;;6.10;;
20417;SDS011;10368;51.436;6.774;2024-02-15T03:02:43;6.37;;;4.57;;
20417;SDS011;10368;51.436;6.774;2024-02-15T03:05:12;11.93;;;5.73;;
20417;SDS011;10368;51.436;6.774;2024-02-15T03:07:41;11.67;;;5.83;;
20417;SDS011;10368;51.436;6.774;2024-02-15T03:10:08;12.00;;;6.20;;
20417;SDS011;10368;51.436;6.774;2024-02-15T03:12:36;12.67;;;5.93;;
20417;SDS011;10368;51.436;6.774;2024-02-15T03:15:04;10.07;;;5.77;;
20417;SDS011;10368;51.436;6.774;2024-02-15T03:17:38;12.53;;;5.70;;
20417;SDS011;10368;51.436;6.774;2024-02-15T03:20:09;10.17;;;6.00;;
20417;SDS011;10368;51.436;6.774;2024-02-15T03:22:57;14.13;;;8.30;;
20417;SDS011;10368;51.436;6.774;2024-02-15T03:25:25;10.93;;;4.83;;
20417;SDS011;10368;51.436;6.774;2024-02-15T03:27:56;14.27;;;5.90;;
20417;SDS011;10368;51.436;6.774;2024-02-15T03:30:25;14.70;;;5.47;;
20417;SDS011;10368;51.436;6.774;2024-02-15T03:32:52;8.40;;;4.50;;
20417;SDS011;10368;51.436;6.774;2024-02-15T03:35:21;8.17;;;4.93;;
20417;SDS011;10368;51.436;6.774;2024-02-15T03:37:49;15.33;;;4.73;;
20417;SDS011;10368;51.436;6.774;2024-02-15T03:40:17;7.97;;;4.30;;
20417;SDS011;10368;51.436;6.774;2024-02-15T03:42:45;16.13;;;5.10;;
20417;SDS011;10368;51.436;6.774;2024-02-15T03:45:18;10.67;;;5.40;;
20417;SDS011;10368;51.436;6.774;2024-02-15T03:47:45;10.53;;;4.70;;
20417;SDS011;10368;51.436;6.774;2024-02-15T03:50:13;6.37;;;3.87;;
20417;SDS011;10368;51.436;6.774;2024-02-15T03:52:41;7.57;;;4.37;;
20417;SDS011;10368;51.436;6.774;2024-02-15T03:55:10;9.40;;;5.03;;
20417;SDS011;10368;51.436;6.774;2024-02-15T03:57:40;5.87;;;4.20;;
20417;SDS011;10368;51.436;6.774;2024-02-15T04:00:07;9.30;;;4.03;;
20417;SDS011;10368;51.436;6.774;2024-02-15T04:02:37;5.70;;;3.93;;
20417;SDS011;10368;51.436;6.774;2024-02-15T04:05:07;10.10;;;4.47;;
20417;SDS011;10368;51.436;6.774;2024-02-15T04:07:36;9.47;;;5.13;;
20417;SDS011;10368;51.436;6.774;2024-02-15T04:10:04;8.27;;;4.40;;
20417;SDS011;10368;51.436;6.774;2024-02-15T04:12:32;10.83;;;4.70;;
20417;SDS011;10368;51.436;6.774;2024-02-15T04:15:00;8.87;;;5.23;;
20417;SDS011;10368;51.436;6.774;2024-02-15T04:17:32;8.40;;;4.67;;
20417;SDS011;10368;51.436;6.774;2024-02-15T04:20:02;10.77;;;5.00;;
20417;SDS011;10368;51.436;6.774;2024-02-15T04:22:33;6.77;;;4.87;;
20417;SDS011;10368;51.436;6.774;2024-02-15T04:25:04;6.57;;;4.87;;
20417;SDS011;10368;51.436;6.774;2024-02-15T04:27:32;7.87;;;5.23;;
20417;SDS011;10368;51.436;6.774;2024-02-15T04:30:00;7.57;;;4.93;;
20417;SDS011;10368;51.436;6.774;2024-02-15T04:32:29;13.70;;;5.60;;
20417;SDS011;10368;51.436;6.774;2024-02-15T04:35:00;7.50;;;5.03;;
20417;SDS011;10368;51.436;6.774;2024-02-15T04:37:28;11.00;;;5.10;;
20417;SDS011;10368;51.436;6.774;2024-02-15T04:39:59;9.80;;;5.17;;
20417;SDS011;10368;51.436;6.774;2024-02-15T04:42:34;11.00;;;5.50;;
20417;SDS011;10368;51.436;6.774;2024-02-15T04:45:03;9.67;;;5.17;;
20417;SDS011;10368;51.436;6.774;2024-02-15T04:47:35;10.63;;;4.77;;
20417;SDS011;10368;51.436;6.774;2024-02-15T04:50:02;9.27;;;5.50;;
20417;SDS011;10368;51.436;6.774;2024-02-15T04:52:32;9.30;;;4.37;;
20417;SDS011;10368;51.436;6.774;2024-02-15T04:54:59;6.37;;;5.20;;
20417;SDS011;10368;51.436;6.774;2024-02-15T04:57:27;11.77;;;6.10;;
20417;SDS011;10368;51.436;6.774;2024-02-15T04:59:57;12.00;;;5.30;;
20417;SDS011;10368;51.436;6.774;2024-02-15T05:02:25;5.33;;;4.10;;
20417;SDS011;10368;51.436;6.774;2024-02-15T05:04:52;6.10;;;4.80;;
20417;SDS011;10368;51.436;6.774;2024-02-15T05:07:23;6.50;;;4.63;;
20417;SDS011;10368;51.436;6.774;2024-02-15T05:09:50;8.87;;;4.90;;
20417;SDS011;10368;51.436;6.774;2024-02-15T05:12:21;8.13;;;4.80;;
20417;SDS011;10368;51.436;6.774;2024-02-15T05:14:52;7.07;;;4.70;;
20417;SDS011;10368;51.436;6.774;2024-02-15T05:17:19;7.80;;;5.10;;
20417;SDS011;10368;51.436;6.774;2024-02-15T05:19:49;9.70;;;4.60;;
20417;SDS011;10368;51.436;6.774;2024-02-15T05:22:16;7.40;;;5.10;;
20417;SDS011;10368;51.436;6.774;2024-02-15T05:24:45;5.83;;;5.23;;
20417;SDS011;10368;51.436;6.774;2024-02-15T05:27:12;8.63;;;4.57;;
20417;SDS011;10368;51.436;6.774;2024-02-15T05:29:39;5.27;;;4.77;;
20417;SDS011;10368;51.436;6.774;2024-02-15T05:32:08;5.00;;;4.30;;
20417;SDS011;10368;51.436;6.774;2024-02-15T05:34:35;13.20;;;4.37;;
20417;SDS011;10368;51.436;6.774;2024-02-15T05:37:06;5.50;;;4.40;;
20417;SDS011;10368;51.436;6.774;2024-02-15T05:39:33;9.13;;;4.17;;
20417;SDS011;10368;51.436;6.774;2024-02-15T05:42:00;8.10;;;4.30;;
20417;SDS011;10368;51.436;6.774;2024-02-15T05:44:27;5.33;;;3.83;;
20417;SDS011;10368;51.436;6.774;2024-02-15T05:46:55;4.33;;;3.93;;
20417;SDS011;10368;51.436;6.774;2024-02-15T05:49:22;6.20;;;4.60;;
20417;SDS011;10368;51.436;6.774;2024-02-15T05:51:50;6.57;;;3.63;;
20417;SDS011;10368;51.436;6.774;2024-02-15T05:54:20;7.77;;;4.17;;
20417;SDS011;10368;51.436;6.774;2024-02-15T05:56:49;5.57;;;3.93;;
20417;SDS011;10368;51.436;6.774;2024-02-15T05:59:19;6.47;;;3.73;;
20417;SDS011;10368;51.436;6.774;2024-02-15T06:01:47;5.17;;;4.07;;
20417;SDS011;10368;51.436;6.774;2024-02-15T06:04:17;4.77;;;3.63;;
20417;SDS011;10368;51.436;6.774;2024-02-15T06:06:45;5.23;;;3.83;;
20417;SDS011;10368;51.436;6.774;2024-02-15T06:09:17;6.20;;;3.73;;
20417;SDS011;10368;51.436;6.774;2024-02-15T06:11:44;4.57;;;3.53;;
20417;SDS011;10368;51.436;6.774;2024-02-15T06:14:12;6.70;;;4.00;;
20417;SDS011;10368;51.436;6.774;2024-02-15T06:16:45;7.23;;;5.33;;
20417;SDS011;10368;51.436;6.774;2024-02-15T06:19:13;6.93;;;4.40;;
20417;SDS011;10368;51.436;6.774;2024-02-15T06:21:41;9.13;;;5.20;;
20417;SDS011;10368;51.436;6.774;2024-02-15T06:24:08;6.70;;;4.00;;
20417;SDS011;10368;51.436;6.774;2024-02-15T06:26:36;6.70;;;3.80;;
20417;SDS011;10368;51.436;6.774;2024-02-15T06:29:04;6.83;;;4.07;;
20417;SDS011;10368;51.436;6.774;2024-02-15T06:31:49;4.90;;;3.87;;
20417;SDS011;10368;51.436;6.774;2024-02-15T06:34:48;5.73;;;4.17;;
20417;SDS011;10368;51.436;6.774;2024-02-15T06:37:37;5.13;;;4.13;;
20417;SDS011;10368;51.436;6.774;2024-02-15T06:40:23;4.37;;;3.80;;
20417;SDS011;10368;51.436;6.774;2024-02-15T06:42:51;10.60;;;4.63;;
20417;SDS011;10368;51.436;6.774;2024-02-15T06:45:17;8.33;;;4.57;;
20417;SDS011;10368;51.436;6.774;2024-02-15T06:47:44;6.67;;;4.23;;
20417;SDS011;10368;51.436;6.774;2024-02-15T06:50:15;7.23;;;4.17;;
20417;SDS011;10368;51.436;6.774;2024-02-15T06:52:43;8.73;;;4.60;;
20417;SDS011;10368;51.436;6.774;2024-02-15T06:55:11;11.20;;;9.03;;
20417;SDS011;10368;51.436;6.774;2024-02-15T06:57:38;8.00;;;4.50;;
20417;SDS011;10368;51.436;6.774;2024-02-15T07:00:09;7.13;;;4.27;;
20417;SDS011;10368;51.436;6.774;2024-02-15T07:02:41;8.50;;;4.50;;
20417;SDS011;10368;51.436;6.774;2024-02-15T07:05:11;7.27;;;4.33;;
20417;SDS011;10368;51.436;6.774;2024-02-15T07:07:38;7.87;;;6.70;;
20417;SDS011;10368;51.436;6.774;2024-02-15T07:10:05;8.10;;;5.10;;
20417;SDS011;10368;51.436;6.774;2024-02-15T07:12:33;6.40;;;4.87;;
20417;SDS011;10368;51.436;6.774;2024-02-15T07:15:00;10.07;;;4.37;;
20417;SDS011;10368;51.436;6.774;2024-02-15T07:17:28;8.43;;;6.77;;
20417;SDS011;10368;51.436;6.774;2024-02-15T07:19:55;8.17;;;5.37;;
20417;SDS011;10368;51.436;6.774;2024-02-15T07:22:22;6.70;;;4.33;;
20417;SDS011;10368;51.436;6.774;2024-02-15T07:24:49;7.43;;;4.60;;
20417;SDS011;10368;51.436;6.774;2024-02-15T07:27:16;7.57;;;3.93;;
20417;SDS011;10368;51.436;6.774;2024-02-15T07:29:45;7.53;;;3.70;;
20417;SDS011;10368;51.436;6.774;2024-02-15T07:32:12;7.43;;;4.80;;
20417;SDS011;10368;51.436;6.774;2024-02-15T07:34:38;10.40;;;5.67;;
20417;SDS011;10368;51.436;6.774;2024-02-15T07:37:08;8.73;;;5.27;;
20417;SDS011;10368;51.436;6.774;2024-02-15T07:39:35;5.30;;;4.37;;
20417;SDS011;10368;51.436;6.774;2024-02-15T07:42:03;7.43;;;5.17;;
20417;SDS011;10368;51.436;6.774;2024-02-15T07:44:34;6.83;;;5.37;;
20417;SDS011;10368;51.436;6.774;2024-02-15T07:47:03;6.70;;;4.77;;
20417;SDS011;10368;51.436;6.774;2024-02-15T07:49:31;8.53;;;5.43;;
20417;SDS011;10368;51.436;6.774;2024-02-15T07:52:00;7.50;;;4.53;;
20417;SDS011;10368;51.436;6.774;2024-02-15T07:54:27;8.43;;;4.10;;
20417;SDS011;10368;51.436;6.774;2024-02-15T07:56:56;8.30;;;5.13;;
20417;SDS011;10368;51.436;6.774;2024-02-15T07:59:24;9.23;;;6.13;;
20417;SDS011;10368;51.436;6.774;2024-02-15T08:01:51;9.57;;;4.23;;
20417;SDS011;10368;51.436;6.774;2024-02-15T08:04:19;6.07;;;4.03;;
20417;SDS011;10368;51.436;6.774;2024-02-15T08:06:47;8.20;;;4.53;;
20417;SDS011;10368;51.436;6.774;2024-02-15T08:09:20;7.93;;;4.50;;
20417;SDS011;10368;51.436;6.774;2024-02-15T08:11:50;9.30;;;4.27;;
20417;SDS011;10368;51.436;6.774;2024-02-15T08:14:17;9.17;;;4.40;;
20417;SDS011;10368;51.436;6.774;2024-02-15T08:16:47;7.20;;;4.53;;
20417;SDS011;10368;51.436;6.774;2024-02-15T08:19:13;6.77;;;4.10;;
20417;SDS011;10368;51.436;6.774;2024-02-15T08:21:41;10.60;;;5.27;;
20417;SDS011;10368;51.436;6.774;2024-02-15T08:24:12;8.43;;;4.77;;
20417;SDS011;10368;51.436;6.774;2024-02-15T08:26:39;8.33;;;5.03;;
20417;SDS011;10368;51.436;6.774;2024-02-15T08:29:08;8.40;;;4.60;;
20417;SDS011;10368;51.436;6.774;2024-02-15T08:31:36;9.57;;;4.90;;
20417;SDS011;10368;51.436;6.774;2024-02-15T08:34:03;12.27;;;6.60;;
20417;SDS011;10368;51.436;6.774;2024-02-15T08:36:36;10.73;;;5.60;;
20417;SDS011;10368;51.436;6.774;2024-02-15T08:39:06;9.67;;;4.33;;
20417;SDS011;10368;51.436;6.774;2024-02-15T08:41:34;14.57;;;5.40;;
20417;SDS011;10368;51.436;6.774;2024-02-15T08:44:02;8.60;;;5.10;;
20417;SDS011;10368;51.436;6.774;2024-02-15T08:46:32;8.80;;;3.77;;
20417;SDS011;10368;51.436;6.774;2024-02-15T08:48:59;7.20;;;4.03;;
20417;SDS011;10368;51.436;6.774;2024-02-15T08:51:26;9.47;;;4.67;;
20417;SDS011;10368;51.436;6.774;2024-02-15T08:53:53;10.10;;;4.17;;
20417;SDS011;10368;51.436;6.774;2024-02-15T08:56:24;13.23;;;4.63;;
20417;SDS011;10368;51.436;6.774;2024-02-15T08:58:51;10.03;;;4.97;;
20417;SDS011;10368;51.436;6.774;2024-02-15T09:01:17;11.83;;;4.90;;
20417;SDS011;10368;51.436;6.774;2024-02-15T09:03:45;11.03;;;4.23;;
20417;SDS011;10368;51.436;6.774;2024-02-15T09:06:12;7.47;;;4.00;;
20417;SDS011;10368;51.436;6.774;2024-02-15T09:08:39;6.77;;;3.70;;
20417;SDS011;10368;51.436;6.774;2024-02-15T09:11:07;9.13;;;4.53;;
20417;SDS011;10368;51.436;6.774;2024-02-15T09:13:38;6.33;;;4.67;;
20417;SDS011;10368;51.436;6.774;2024-02-15T09:16:05;12.13;;;4.53;;
20417;SDS011;10368;51.436;6.774;2024-02-15T09:18:32;6.10;;;4.40;;
20417;SDS011;10368;51.436;6.774;2024-02-15T09:21:00;9.40;;;4.00;;
20417;SDS011;10368;51.436;6.774;2024-02-15T09:23:27;6.37;;;3.87;;
20417;SDS011;10368;51.436;6.774;2024-02-15T09:25:54;7.90;;;4.00;;
20417;SDS011;10368;51.436;6.774;2024-02-15T09:28:21;5.57;;;4.37;;
20417;SDS011;10368;51.436;6.774;2024-02-15T09:30:49;5.13;;;3.80;;
20417;SDS011;10368;51.436;6.774;2024-02-15T09:33:19;9.67;;;4.50;;
20417;SDS011;10368;51.436;6.774;2024-02-15T09:35:46;14.80;;;4.23;;
20417;SDS011;10368;51.436;6.774;2024-02-15T09:38:14;8.13;;;4.07;;
20417;SDS011;10368;51.436;6.774;2024-02-15T09:40:43;9.03;;;4.83;;
20417;SDS011;10368;51.436;6.774;2024-02-15T09:43:10;10.67;;;4.20;;
20417;SDS011;10368;51.436;6.774;2024-02-15T09:45:41;7.50;;;3.90;;
20417;SDS011;10368;51.436;6.774;2024-02-15T09:48:10;9.83;;;4.03;;
20417;SDS011;10368;51.436;6.774;2024-02-15T09:50:39;6.43;;;4.07;;
20417;SDS011;10368;51.436;6.774;2024-02-15T09:53:12;11.53;;;3.40;;
20417;SDS011;10368;51.436;6.774;2024-02-15T09:55:41;10.40;;;3.83;;
20417;SDS011;10368;51.436;6.774;2024-02-15T09:58:09;3.90;;;2.77;;
20417;SDS011;10368;51.436;6.774;2024-02-15T10:00:39;4.93;;;3.23;;
20417;SDS011;10368;51.436;6.774;2024-02-15T10:03:06;7.03;;;2.93;;
20417;SDS011;10368;51.436;6.774;2024-02-15T10:05:33;4.97;;;3.07;;
20417;SDS011;10368;51.436;6.774;2024-02-15T10:08:01;4.63;;;2.80;;
20417;SDS011;10368;51.436;6.774;2024-02-15T10:10:30;4.83;;;3.80;;
20417;SDS011;10368;51.436;6.774;2024-02-15T10:13:00;7.00;;;3.10;;
20417;SDS011;10368;51.436;6.774;2024-02-15T10:15:34;4.22;;;3.28;;
20417;SDS011;10368;51.436;6.774;2024-02-15T10:18:09;6.05;;;2.85;;
20417;SDS011;10368;51.436;6.774;2024-02-15T10:20:38;4.65;;;3.03;;
20417;SDS011;10368;51.436;6.774;2024-02-15T10:25:38;5.93;;;2.75;;
20417;SDS011;10368;51.436;6.774;2024-02-15T10:28:12;11.90;;;3.00;;
20417;SDS011;10368;51.436;6.774;2024-02-15T10:30:42;6.47;;;2.47;;
20417;SDS011;10368;51.436;6.774;2024-02-15T10:33:28;6.53;;;2.72;;
20417;SDS011;10368;51.436;6.774;2024-02-15T10:36:09;4.20;;;3.40;;
20417;SDS011;10368;51.436;6.774;2024-02-15T10:38:40;4.22;;;2.95;;
20417;SDS011;10368;51.436;6.774;2024-02-15T10:41:08;5.55;;;2.80;;
20417;SDS011;10368;51.436;6.774;2024-02-15T10:43:36;5.82;;;3.15;;
20417;SDS011;10368;51.436;6.774;2024-02-15T10:46:04;3.80;;;3.03;;
20417;SDS011;10368;51.436;6.774;2024-02-15T10:48:36;8.23;;;3.53;;
20417;SDS011;10368;51.436;6.774;2024-02-15T10:51:06;4.35;;;2.70;;
20417;SDS011;10368;51.436;6.774;2024-02-15T10:53:37;6.75;;;2.85;;
20417;SDS011;10368;51.436;6.774;2024-02-15T10:59:31;5.00;;;2.70;;
20417;SDS011;10368;51.436;6.774;2024-02-15T11:01:35;4.95;;;2.92;;
20417;SDS011;10368;51.436;6.774;2024-02-15T11:04:08;4.57;;;2.72;;
20417;SDS011;10368;51.436;6.774;2024-02-15T11:06:38;3.80;;;2.67;;
20417;SDS011;10368;51.436;6.774;2024-02-15T11:09:08;6.97;;;2.50;;
20417;SDS011;10368;51.436;6.774;2024-02-15T11:11:38;3.08;;;2.03;;
20417;SDS011;10368;51.436;6.774;2024-02-15T11:16:58;6.63;;;2.90;;
20417;SDS011;10368;51.436;6.774;2024-02-15T11:22:01;7.78;;;3.05;;
20417;SDS011;10368;51.436;6.774;2024-02-15T11:24:45;8.70;;;3.17;;
20417;SDS011;10368;51.436;6.774;2024-02-15T11:27:23;7.57;;;3.13;;
20417;SDS011;10368;51.436;6.774;2024-02-15T11:32:44;6.57;;;2.30;;
20417;SDS011;10368;51.436;6.774;2024-02-15T11:35:20;3.13;;;2.45;;
20417;SDS011;10368;51.436;6.774;2024-02-15T11:37:54;3.60;;;2.50;;
20417;SDS011;10368;51.436;6.774;2024-02-15T11:42:59;5.53;;;2.10;;
20417;SDS011;10368;51.436;6.774;2024-02-15T11:45:28;4.68;;;2.22;;
20417;SDS011;10368;51.436;6.774;2024-02-15T11:48:13;6.07;;;2.45;;
20417;SDS011;10368;51.436;6.774;2024-02-15T11:50:42;3.28;;;2.08;;
20417;SDS011;10368;51.436;6.774;2024-02-15T11:53:09;4.40;;;2.28;;
20417;SDS011;10368;51.436;6.774;2024-02-15T11:55:38;5.50;;;2.15;;
20417;SDS011;10368;51.436;6.774;2024-02-15T11:58:07;3.67;;;2.25;;
20417;SDS011;10368;51.436;6.774;2024-02-15T12:00:35;4.32;;;2.08;;
20417;SDS011;10368;51.436;6.774;2024-02-15T12:03:22;3.35;;;2.00;;
20417;SDS011;10368;51.436;6.774;2024-02-15T12:06:25;3.97;;;1.98;;
20417;SDS011;10368;51.436;6.774;2024-02-15T12:09:13;4.57;;;1.75;;
20417;SDS011;10368;51.436;6.774;2024-02-15T12:12:03;6.72;;;2.00;;
20417;SDS011;10368;51.436;6.774;2024-02-15T12:14:49;4.70;;;2.65;;
20417;SDS011;10368;51.436;6.774;2024-02-15T12:17:34;4.10;;;2.50;;
20417;SDS011;10368;51.436;6.774;2024-02-15T12:20:20;5.53;;;2.70;;
20417;SDS011;10368;51.436;6.774;2024-02-15T12:22:51;7.50;;;2.40;;
20417;SDS011;10368;51.436;6.774;2024-02-15T12:25:19;4.00;;;1.88;;
20417;SDS011;10368;51.436;6.774;2024-02-15T12:27:58;3.03;;;1.75;;
20417;SDS011;10368;51.436;6.774;2024-02-15T12:30:26;3.03;;;1.75;;
20417;SDS011;10368;51.436;6.774;2024-02-15T12:33:10;2.20;;;1.60;;
20417;SDS011;10368;51.436;6.774;2024-02-15T12:35:40;4.57;;;2.03;;
20417;SDS011;10368;51.436;6.774;2024-02-15T12:38:08;3.88;;;1.80;;
20417;SDS011;10368;51.436;6.774;2024-02-15T12:40:36;3.72;;;1.65;;
20417;SDS011;10368;51.436;6.774;2024-02-15T12:43:07;6.32;;;1.80;;
20417;SDS011;10368;51.436;6.774;2024-02-15T12:45:39;5.88;;;1.65;;
20417;SDS011;10368;51.436;6.774;2024-02-15T12:48:07;4.47;;;1.90;;
20417;SDS011;10368;51.436;6.774;2024-02-15T12:50:36;6.38;;;1.67;;
20417;SDS011;10368;51.436;6.774;2024-02-15T12:53:03;5.68;;;1.90;;
20417;SDS011;10368;51.436;6.774;2024-02-15T12:55:32;4.38;;;1.55;;
20417;SDS011;10368;51.436;6.774;2024-02-15T12:58:02;5.20;;;2.13;;
20417;SDS011;10368;51.436;6.774;2024-02-15T13:00:40;2.95;;;1.58;;
20417;SDS011;10368;51.436;6.774;2024-02-15T13:03:08;3.13;;;1.70;;
20417;SDS011;10368;51.436;6.774;2024-02-15T13:05:38;4.60;;;1.90;;
20417;SDS011;10368;51.436;6.774;2024-02-15T13:08:06;2.60;;;1.63;;
20417;SDS011;10368;51.436;6.774;2024-02-15T13:10:40;4.45;;;1.73;;
20417;SDS011;10368;51.436;6.774;2024-02-15T13:13:07;2.78;;;1.33;;
20417;SDS011;10368;51.436;6.774;2024-02-15T13:15:37;2.88;;;1.52;;
20417;SDS011;10368;51.436;6.774;2024-02-15T13:18:05;2.03;;;1.40;;
20417;SDS011;10368;51.436;6.774;2024-02-15T13:20:37;6.10;;;1.55;;
20417;SDS011;10368;51.436;6.774;2024-02-15T13:23:05;3.58;;;1.40;;
20417;SDS011;10368;51.436;6.774;2024-02-15T13:25:36;5.70;;;2.10;;
20417;SDS011;10368;51.436;6.774;2024-02-15T13:28:06;3.70;;;1.33;;
20417;SDS011;10368;51.436;6.774;2024-02-15T13:30:35;2.65;;;1.60;;
20417;SDS011;10368;51.436;6.774;2024-02-15T13:33:02;3.95;;;1.70;;
20417;SDS011;10368;51.436;6.774;2024-02-15T13:35:30;3.65;;;1.70;;
20417;SDS011;10368;51.436;6.774;2024-02-15T13:37:56;2.90;;;1.80;;
20417;SDS011;10368;51.436;6.774;2024-02-15T13:40:27;6.65;;;2.03;;
20417;SDS011;10368;51.436;6.774;2024-02-15T13:42:58;4.07;;;1.60;;
20417;SDS011;10368;51.436;6.774;2024-02-15T13:45:29;3.70;;;1.88;;
20417;SDS011;10368;51.436;6.774;2024-02-15T13:47:59;1.58;;;1.38;;
20417;SDS011;10368;51.436;6.774;2024-02-15T13:50:31;11.30;;;7.80;;
20417;SDS011;10368;51.436;6.774;2024-02-15T13:52:59;4.15;;;1.70;;
20417;SDS011;10368;51.436;6.774;2024-02-15T13:55:27;4.95;;;1.30;;
20417;SDS011;10368;51.436;6.774;2024-02-15T13:57:55;4.10;;;1.80;;
20417;SDS011;10368;51.436;6.774;2024-02-15T14:00:23;4.45;;;1.63;;
20417;SDS011;10368;51.436;6.774;2024-02-15T14:03:01;1.58;;;1.10;;
20417;SDS011;10368;51.436;6.774;2024-02-15T14:05:29;7.43;;;1.65;;
20417;SDS011;10368;51.436;6.774;2024-02-15T14:07:58;3.47;;;1.52;;
20417;SDS011;10368;51.436;6.774;2024-02-15T14:10:27;2.17;;;1.40;;
20417;SDS011;10368;51.436;6.774;2024-02-15T14:12:55;5.68;;;1.38;;
20417;SDS011;10368;51.436;6.774;2024-02-15T14:15:25;1.33;;;1.10;;
20417;SDS011;10368;51.436;6.774;2024-02-15T14:17:53;3.90;;;1.38;;
20417;SDS011;10368;51.436;6.774;2024-02-15T14:20:22;3.85;;;2.40;;
20417;SDS011;10368;51.436;6.774;2024-02-15T14:22:50;4.07;;;2.55;;
20417;SDS011;10368;51.436;6.774;2024-02-15T14:25:24;4.50;;;1.80;;
20417;SDS011;10368;51.436;6.774;2024-02-15T14:27:55;2.40;;;1.60;;
20417;SDS011;10368;51.436;6.774;2024-02-15T14:30:24;2.75;;;1.40;;
20417;SDS011;10368;51.436;6.774;2024-02-15T14:33:09;3.60;;;1.65;;
20417;SDS011;10368;51.436;6.774;2024-02-15T14:35:45;4.43;;;1.77;;
20417;SDS011;10368;51.436;6.774;2024-02-15T14:38:12;4.38;;;1.77;;
20417;SDS011;10368;51.436;6.774;2024-02-15T14:40:45;5.47;;;2.47;;
20417;SDS011;10368;51.436;6.774;2024-02-15T14:43:17;6.15;;;1.90;;
20417;SDS011;10368;51.436;6.774;2024-02-15T14:45:47;2.45;;;1.40;;
20417;SDS011;10368;51.436;6.774;2024-02-15T14:48:14;2.80;;;2.08;;
20417;SDS011;10368;51.436;6.774;2024-02-15T14:50:44;2.80;;;1.58;;
20417;SDS011;10368;51.436;6.774;2024-02-15T14:53:11;3.65;;;1.88;;
20417;SDS011;10368;51.436;6.774;2024-02-15T14:55:39;4.07;;;1.60;;
20417;SDS011;10368;51.436;6.774;2024-02-15T14:58:09;2.50;;;1.20;;
20417;SDS011;10368;51.436;6.774;2024-02-15T15:00:40;2.78;;;1.67;;
20417;SDS011;10368;51.436;6.774;2024-02-15T15:03:11;2.72;;;1.30;;
20417;SDS011;10368;51.436;6.774;2024-02-15T15:05:42;7.05;;;2.03;;
20417;SDS011;10368;51.436;6.774;2024-02-15T15:08:28;5.38;;;2.88;;
20417;SDS011;10368;51.436;6.774;2024-02-15T15:11:15;3.85;;;1.60;;
20417;SDS011;10368;51.436;6.774;2024-02-15T15:14:00;3.15;;;1.65;;
20417;SDS011;10368;51.436;6.774;2024-02-15T15:16:30;3.95;;;1.80;;